Create Tblcommutelog Verified Points Advance Search
| # | Trip ID | Id Commuter | Trip Date | Trip Num | Current Lat | Current Lng | Delta Distance | Current Time | Activity | Activity Confidence | Current Speed | |
|---|---|---|---|---|---|---|---|---|---|---|---|---|
| 71021 | 250825_700992_16414139_0818 | 700992 | (not set) | (not set) | 39.177199288562 | -77.248467323463 | 3.4699 | 2025-08-25 08:44:01 | in_vehicle | 100 | 11.015047341458 | |
| 71022 | 250825_753800_6439769_0812 | 753800 | (not set) | (not set) | 38.922387080899 | -77.012135737409 | 5.131 | 2025-08-25 08:44:02 | on_foot | 100 | 2.0697917691132 | |
| 71023 | 250825_753800_6439769_0812 | 753800 | (not set) | (not set) | 38.922387080899 | -77.012135737409 | 5.131 | 2025-08-25 08:44:02 | on_foot | 100 | 2.0697917691132 | |
| 71024 | 250825_770658_6426227_0805 | 770658 | (not set) | (not set) | 38.884250374225 | -77.107995675654 | 4.0128 | 2025-08-25 08:44:02 | in_vehicle | 100 | 4.7967312489383 | |
| 71025 | 250825_770658_6426227_0805 | 770658 | (not set) | (not set) | 38.884250374225 | -77.107995675654 | 4.0128 | 2025-08-25 08:44:02 | in_vehicle | 100 | 4.7967312489383 | |
| 71026 | 250825_753795_16499475_0822 | 753795 | (not set) | (not set) | 38.99050410493 | -77.027749051243 | 3.9791 | 2025-08-25 08:44:03 | in_vehicle | 100 | 10.21037667528 | |
| 71027 | 250825_753795_16499475_0822 | 753795 | (not set) | (not set) | 38.99050410493 | -77.027749051243 | 3.9791 | 2025-08-25 08:44:03 | in_vehicle | 100 | 10.21037667528 | |
| 71028 | 250825_753795_16499475_0822 | 753795 | (not set) | (not set) | 38.99050410493 | -77.027749051243 | 3.9791 | 2025-08-25 08:44:03 | in_vehicle | 100 | 10.21037667528 | |
| 71029 | 250825_756848_16513645_0830 | 756848 | (not set) | (not set) | 39.024888707331 | -77.218780685152 | 6.6366 | 2025-08-25 08:44:03 | in_vehicle | 100 | 5.6773985891441 | |
| 71030 | 250825_785040_16472741_0829 | 785040 | (not set) | (not set) | 38.999442425432 | -76.919346724844 | 1.3545 | 2025-08-25 08:44:05 | in_vehicle | 100 | 12.508158466477 | |
| 71031 | 250825_779990_16500693_0822 | 779990 | (not set) | (not set) | 38.83775882225 | -77.090244223103 | 0.7236 | 2025-08-25 08:44:07 | in_vehicle | 100 | 5.4047046411616 | |
| 71032 | 250825_761648_16500693_0831 | 761648 | (not set) | (not set) | 38.934825924829 | -76.985533894338 | 1.9427 | 2025-08-25 08:44:09 | on_bicycle | 100 | 1.6138117249457 | |
| 71033 | 250825_780809_16496249_0815 | 780809 | (not set) | (not set) | 38.947775183448 | -77.340348289818 | 3.9365 | 2025-08-25 08:44:09 | in_vehicle | 100 | -0.44703925898772 | |
| 71034 | 250825_782103_16513469_0743 | 782103 | (not set) | (not set) | 38.991783081459 | -76.864262519011 | 12.5264 | 2025-08-25 08:44:10 | in_vehicle | 100 | 2.838699294572 | |
| 71035 | 250825_782103_16513469_0743 | 782103 | (not set) | (not set) | 38.991783081459 | -76.864262519011 | 12.5264 | 2025-08-25 08:44:10 | in_vehicle | 100 | 2.838699294572 | |
| 71036 | 250825_775158_16513674_0829 | 775158 | (not set) | (not set) | 38.845471640662 | -77.049958769491 | 2.716 | 2025-08-25 08:44:07 | in_vehicle | 100 | 8.0914105876778 | |
| 71037 | 250825_775158_16513674_0829 | 775158 | (not set) | (not set) | 38.845471640662 | -77.049958769491 | 2.716 | 2025-08-25 08:44:07 | in_vehicle | 100 | 8.0914105876778 | |
| 71038 | 250825_780789_16421763_0800 | 780789 | (not set) | (not set) | 38.955854820082 | -77.448531428512 | 12.9556 | 2025-08-25 08:44:12 | unknown | 100 | 0.21010845172423 | |
| 71039 | 250825_780789_16421763_0800 | 780789 | (not set) | (not set) | 38.955854820082 | -77.448531428512 | 12.9556 | 2025-08-25 08:44:12 | unknown | 100 | 0.21010845172423 | |
| 71040 | 250825_769309_6461772_0826 | 769309 | (not set) | (not set) | 38.933189053623 | -77.263084018528 | 11.477 | 2025-08-25 08:44:13 | in_vehicle | 100 | 13.084839110571 |